Terminal Aerodrome Forecast
Issued by NWS Wilmington, OH

Current Version | Previous Version | Graphics & Text | Print | Product List | Glossary On
Versions: 1 2 3 4 5 6 7 8 9 10 11 12 13 14 15 16 17 18 19 20 21 22 23 24 25 26
000
FTUS41 KILN 132332
TAFCMH
TAF
KCMH 132332Z 1400/1424 22011G22KT P6SM VCSH BKN028 OVC040
     FM140300 23014G24KT P6SM -DZ OVC025
     FM140500 26016G28KT P6SM -DZ OVC025
     FM140700 29015G26KT P6SM OVC015
     FM141200 33009KT P6SM BKN015
     FM141700 33006KT P6SM BKN025
     FM142300 VRB03KT P6SM BKN050=

USA.gov is the U.S. government's official web portal to all federal, state and local government web resources and services.